Time;durP1;ratioP1;P1;durP2;ratioP2;P2;SDS_P1;SDS_P2;PMS_P1;PMS_P2;Temp;Humidity;BMP_temperature;BMP_pressure;BME280_temperature;BME280_humidity;BME280_pressure;Samples;Min_cycle;Max_cycle;Signal;HPM_P1;HPM_P2
2022/10/26 00:02:02;;;;;;;1.20;0.90;;;;;;;;;;4490784;28;20054;-64
2022/10/26 00:04:12;;;;;;;1.10;1.00;;;;;;;;;;4490558;28;32485;-64
2022/10/26 00:06:24;;;;;;;2.08;1.10;;;;;;;;;;4489795;28;20034;-64
2022/10/26 00:08:35;;;;;;;1.40;0.90;;;;;;;;;;4488718;28;20068;-63
2022/10/26 00:10:45;;;;;;;1.10;1.00;;;;;;;;;;4490495;28;20038;-64
2022/10/26 00:12:55;;;;;;;1.10;1.00;;;;;;;;;;4490508;28;20037;-64
2022/10/26 00:15:07;;;;;;;1.02;0.88;;;;;;;;;;4491914;28;26292;-64
2022/10/26 00:17:17;;;;;;;1.20;0.95;;;;;;;;;;4488305;28;20152;-64
2022/10/26 00:19:28;;;;;;;1.10;1.00;;;;;;;;;;4490159;28;20162;-64
2022/10/26 00:21:38;;;;;;;0.95;0.82;;;;;;;;;;4491552;28;41105;-64
2022/10/26 00:23:48;;;;;;;1.15;0.90;;;;;;;;;;4491115;28;35803;-64
2022/10/26 00:25:59;;;;;;;1.17;0.90;;;;;;;;;;4491701;28;20053;-64
2022/10/26 00:28:09;;;;;;;0.80;0.80;;;;;;;;;;4492778;28;25830;-64
2022/10/26 00:30:19;;;;;;;1.38;1.00;;;;;;;;;;4494180;28;23188;-64
2022/10/26 00:32:30;;;;;;;0.80;0.70;;;;;;;;;;4493620;28;35243;-64
2022/10/26 00:34:41;;;;;;;1.00;0.90;;;;;;;;;;4501591;28;20929;-64
2022/10/26 00:36:51;;;;;;;0.93;0.73;;;;;;;;;;4493560;28;20278;-65
2022/10/26 00:39:02;;;;;;;0.90;0.73;;;;;;;;;;4494006;28;20042;-65
2022/10/26 00:41:24;;;;;;;0.90;0.75;;;;;;;;;;4492858;28;20814;-64
2022/10/26 00:43:37;;;;;;;1.15;0.80;;;;;;;;;;4495831;28;20112;-65
2022/10/26 00:45:48;;;;;;;0.98;0.90;;;;;;;;;;4493659;28;20042;-63
2022/10/26 00:48:02;;;;;;;1.00;0.80;;;;;;;;;;4493822;28;20559;-64
2022/10/26 00:50:18;;;;;;;1.10;0.82;;;;;;;;;;4492359;28;20038;-63
2022/10/26 00:52:28;;;;;;;1.48;0.80;;;;;;;;;;4497594;28;20117;-63
2022/10/26 00:54:39;;;;;;;0.65;0.65;;;;;;;;;;4493692;28;24607;-63
2022/10/26 00:56:51;;;;;;;1.05;0.70;;;;;;;;;;4493166;28;20534;-63
2022/10/26 00:59:05;;;;;;;1.00;0.80;;;;;;;;;;4508355;28;20037;-63
2022/10/26 01:01:15;;;;;;;0.80;0.70;;;;;;;;;;4493130;28;20018;-62
2022/10/26 01:03:27;;;;;;;0.77;0.60;;;;;;;;;;4492898;28;20404;-63
2022/10/26 01:05:39;;;;;;;1.70;0.80;;;;;;;;;;4492505;28;20599;-64
2022/10/26 01:07:50;;;;;;;0.93;0.65;;;;;;;;;;4493646;28;20037;-63
2022/10/26 01:10:01;;;;;;;1.38;0.77;;;;;;;;;;4494464;28;20033;-63
2022/10/26 01:12:11;;;;;;;0.95;0.70;;;;;;;;;;4493413;28;20046;-64
2022/10/26 01:14:22;;;;;;;0.65;0.60;;;;;;;;;;4493611;28;21050;-63
2022/10/26 01:17:10;;;;;;;0.70;0.63;;;;;;;;;;4492116;28;37556;-63
2022/10/26 01:20:09;;;;;;;0.88;0.73;;;;;;;;;;4493119;28;20902;-64
2022/10/26 01:22:28;;;;;;;1.27;0.60;;;;;;;;;;4409023;28;20157;-65
2022/10/26 01:25:02;;;;;;;1.85;0.98;;;;;;;;;;4498011;28;20599;-64
2022/10/26 01:27:27;;;;;;;0.60;0.60;;;;;;;;;;4492151;28;20146;-64
2022/10/26 01:30:07;;;;;;;0.90;0.65;;;;;;;;;;4491153;28;20038;-64
2022/10/26 01:32:23;;;;;;;0.70;0.60;;;;;;;;;;4492552;28;20609;-64
2022/10/26 01:34:36;;;;;;;0.52;0.52;;;;;;;;;;4501544;28;20038;-64
2022/10/26 01:36:59;;;;;;;1.27;0.65;;;;;;;;;;4497013;28;20497;-64
2022/10/26 01:39:21;;;;;;;0.85;0.57;;;;;;;;;;4496289;28;20133;-64
2022/10/26 01:41:38;;;;;;;0.55;0.55;;;;;;;;;;4498381;28;20046;-66
2022/10/26 01:44:02;;;;;;;0.50;0.50;;;;;;;;;;4492415;28;20583;-64
2022/10/26 01:46:14;;;;;;;0.57;0.57;;;;;;;;;;4493452;28;20037;-65
2022/10/26 01:48:26;;;;;;;0.93;0.60;;;;;;;;;;4496346;28;40521;-63
2022/10/26 01:50:37;;;;;;;0.95;0.60;;;;;;;;;;4490872;28;34604;-65
2022/10/26 01:52:49;;;;;;;1.13;0.60;;;;;;;;;;4491144;28;20046;-64
2022/10/26 01:55:01;;;;;;;0.75;0.60;;;;;;;;;;4494079;28;20043;-64
2022/10/26 01:57:14;;;;;;;1.05;0.57;;;;;;;;;;4491818;28;20582;-65
2022/10/26 01:59:39;;;;;;;0.70;0.70;;;;;;;;;;4492977;28;20022;-64
2022/10/26 02:01:59;;;;;;;1.13;0.80;;;;;;;;;;4492052;28;20069;-65
2022/10/26 02:04:18;;;;;;;0.60;0.60;;;;;;;;;;4492575;28;20025;-64
2022/10/26 02:06:53;;;;;;;0.82;0.70;;;;;;;;;;4491913;28;20117;-65
2022/10/26 02:09:28;;;;;;;1.20;0.70;;;;;;;;;;4491234;28;21099;-64
2022/10/26 02:11:42;;;;;;;0.52;0.50;;;;;;;;;;4490328;28;20092;-64
2022/10/26 02:14:01;;;;;;;0.60;0.50;;;;;;;;;;4490507;28;20109;-64
2022/10/26 02:16:20;;;;;;;0.50;0.50;;;;;;;;;;4483975;28;20121;-64
2022/10/26 02:18:38;;;;;;;0.52;0.52;;;;;;;;;;4495956;28;20109;-64
2022/10/26 02:20:50;;;;;;;0.70;0.60;;;;;;;;;;4490832;28;20804;-64
2022/10/26 02:23:03;;;;;;;0.85;0.70;;;;;;;;;;4491644;28;20038;-64
2022/10/26 02:25:26;;;;;;;0.80;0.57;;;;;;;;;;4496477;28;20043;-64
2022/10/26 02:27:40;;;;;;;0.60;0.57;;;;;;;;;;4491207;28;20552;-64
2022/10/26 02:29:53;;;;;;;1.10;0.57;;;;;;;;;;4499586;28;20065;-64
2022/10/26 02:32:06;;;;;;;1.63;0.80;;;;;;;;;;4489947;28;20042;-65
2022/10/26 02:34:21;;;;;;;0.80;0.60;;;;;;;;;;4492586;28;20042;-64
2022/10/26 02:36:34;;;;;;;1.08;0.68;;;;;;;;;;4491500;28;20656;-64
2022/10/26 02:38:46;;;;;;;1.10;0.70;;;;;;;;;;4492248;28;20034;-64
2022/10/26 02:40:56;;;;;;;0.80;0.73;;;;;;;;;;4495453;28;20089;-64
2022/10/26 02:43:10;;;;;;;0.98;0.80;;;;;;;;;;4492406;28;25717;-64
2022/10/26 02:45:32;;;;;;;0.82;0.80;;;;;;;;;;4493571;28;20033;-64
2022/10/26 02:47:42;;;;;;;0.82;0.80;;;;;;;;;;4499666;28;20995;-64
2022/10/26 02:49:53;;;;;;;1.23;0.80;;;;;;;;;;4490994;28;20030;-65
2022/10/26 02:52:10;;;;;;;1.02;0.70;;;;;;;;;;4493722;28;20084;-64
2022/10/26 02:54:33;;;;;;;1.00;0.80;;;;;;;;;;4499741;28;20104;-64
2022/10/26 02:56:48;;;;;;;1.20;1.00;;;;;;;;;;4491034;28;20053;-64
2022/10/26 02:59:00;;;;;;;0.90;0.80;;;;;;;;;;4490894;28;20038;-64
2022/10/26 03:01:12;;;;;;;1.70;1.13;;;;;;;;;;4492290;28;20631;-64
2022/10/26 03:03:22;;;;;;;1.58;1.00;;;;;;;;;;4491505;28;20030;-64
2022/10/26 03:05:35;;;;;;;1.17;1.00;;;;;;;;;;4494358;28;33841;-64
2022/10/26 03:07:45;;;;;;;2.10;1.10;;;;;;;;;;4490438;28;20034;-64
2022/10/26 03:09:56;;;;;;;1.15;0.95;;;;;;;;;;4492053;28;26044;-64
2022/10/26 03:12:06;;;;;;;1.98;1.30;;;;;;;;;;4490471;28;24294;-64
2022/10/26 03:14:17;;;;;;;1.52;1.30;;;;;;;;;;4490720;28;25482;-64
2022/10/26 03:16:27;;;;;;;1.98;1.10;;;;;;;;;;4492441;28;20069;-63
2022/10/26 03:18:37;;;;;;;1.48;1.20;;;;;;;;;;4490080;28;40789;-64
2022/10/26 03:20:48;;;;;;;1.77;1.42;;;;;;;;;;4490093;28;20053;-64
2022/10/26 03:22:58;;;;;;;1.55;1.30;;;;;;;;;;4488807;28;30531;-63
2022/10/26 03:25:09;;;;;;;1.63;1.30;;;;;;;;;;4489835;28;20034;-64
2022/10/26 03:27:19;;;;;;;1.30;1.10;;;;;;;;;;4491530;28;20469;-64
2022/10/26 03:29:30;;;;;;;2.10;1.60;;;;;;;;;;4490955;28;20041;-64
2022/10/26 03:31:40;;;;;;;1.67;1.35;;;;;;;;;;4490496;28;36222;-64
2022/10/26 03:33:50;;;;;;;2.05;1.48;;;;;;;;;;4489258;28;20029;-64
2022/10/26 03:36:01;;;;;;;2.50;1.42;;;;;;;;;;4476580;28;20091;-64
2022/10/26 03:38:11;;;;;;;1.98;1.40;;;;;;;;;;4489962;28;20759;-64
2022/10/26 03:40:22;;;;;;;2.45;1.60;;;;;;;;;;4489413;28;20125;-64
2022/10/26 03:42:33;;;;;;;1.92;1.50;;;;;;;;;;4490087;28;20157;-64
2022/10/26 03:44:43;;;;;;;2.65;1.70;;;;;;;;;;4483575;28;20046;-65
2022/10/26 03:46:53;;;;;;;1.80;1.65;;;;;;;;;;4490085;28;20034;-63
2022/10/26 03:49:04;;;;;;;2.20;1.70;;;;;;;;;;4498744;28;20056;-64
2022/10/26 03:51:14;;;;;;;2.17;1.63;;;;;;;;;;4491793;28;30028;-65
2022/10/26 03:53:25;;;;;;;2.53;1.70;;;;;;;;;;4488379;28;41257;-63
2022/10/26 03:55:36;;;;;;;2.08;1.50;;;;;;;;;;4490186;28;20034;-63
2022/10/26 03:57:46;;;;;;;2.50;1.67;;;;;;;;;;4490538;28;20100;-64
2022/10/26 03:59:57;;;;;;;2.28;1.63;;;;;;;;;;4492387;28;20034;-63
2022/10/26 04:02:07;;;;;;;2.17;1.67;;;;;;;;;;4491260;28;34501;-65
2022/10/26 04:04:17;;;;;;;2.45;1.60;;;;;;;;;;4493659;28;32239;-63
2022/10/26 04:06:28;;;;;;;2.72;1.63;;;;;;;;;;4493524;28;20053;-64
2022/10/26 04:08:38;;;;;;;2.17;1.63;;;;;;;;;;4492567;28;20554;-64
2022/10/26 04:10:48;;;;;;;2.53;1.60;;;;;;;;;;4492751;28;20033;-64
2022/10/26 04:13:00;;;;;;;2.30;1.63;;;;;;;;;;4492513;28;22818;-65
2022/10/26 04:15:10;;;;;;;2.47;1.90;;;;;;;;;;4493418;28;20038;-64
2022/10/26 04:17:21;;;;;;;2.78;1.80;;;;;;;;;;4493837;28;20070;-66
2022/10/26 04:19:31;;;;;;;2.33;1.70;;;;;;;;;;4491811;28;39163;-64
2022/10/26 04:21:41;;;;;;;2.15;1.60;;;;;;;;;;4492395;28;25828;-64
2022/10/26 04:23:52;;;;;;;2.08;1.70;;;;;;;;;;4492902;28;32827;-64
2022/10/26 04:26:04;;;;;;;2.13;1.73;;;;;;;;;;4491993;28;20485;-65
2022/10/26 04:28:14;;;;;;;2.13;1.83;;;;;;;;;;4492466;28;20070;-65
2022/10/26 04:30:25;;;;;;;1.75;1.48;;;;;;;;;;4492992;28;20453;-64
2022/10/26 04:32:35;;;;;;;1.80;1.60;;;;;;;;;;4491585;28;24100;-64
2022/10/26 04:34:46;;;;;;;2.20;1.70;;;;;;;;;;4494819;28;20037;-63
2022/10/26 04:36:56;;;;;;;2.40;1.70;;;;;;;;;;4492511;28;33937;-63
2022/10/26 04:39:06;;;;;;;2.20;1.63;;;;;;;;;;4490030;28;30904;-64
2022/10/26 04:41:17;;;;;;;1.80;1.50;;;;;;;;;;4491376;28;32648;-64
2022/10/26 04:43:27;;;;;;;2.72;1.60;;;;;;;;;;4491655;28;24012;-64
2022/10/26 04:45:38;;;;;;;2.28;1.67;;;;;;;;;;4491891;28;38744;-65
2022/10/26 04:48:09;;;;;;;2.25;1.60;;;;;;;;;;4494631;28;20037;-64
2022/10/26 04:50:19;;;;;;;2.22;1.80;;;;;;;;;;4491483;28;20865;-64
2022/10/26 04:52:30;;;;;;;2.50;1.60;;;;;;;;;;4491181;28;37663;-64
2022/10/26 04:54:40;;;;;;;2.08;1.60;;;;;;;;;;4491213;28;37159;-64
2022/10/26 04:56:50;;;;;;;2.10;1.50;;;;;;;;;;4491096;28;38034;-64
2022/10/26 04:59:01;;;;;;;2.05;1.30;;;;;;;;;;4492330;28;20026;-64
2022/10/26 05:01:11;;;;;;;2.58;1.75;;;;;;;;;;4494576;28;20034;-64
2022/10/26 05:03:22;;;;;;;1.90;1.60;;;;;;;;;;4491199;28;31650;-64
2022/10/26 05:05:34;;;;;;;1.70;1.48;;;;;;;;;;4491082;28;41104;-64
2022/10/26 05:07:52;;;;;;;2.20;1.60;;;;;;;;;;4500869;28;20038;-64
2022/10/26 05:10:03;;;;;;;1.50;1.33;;;;;;;;;;4508614;28;20041;-63
2022/10/26 05:12:14;;;;;;;2.08;1.50;;;;;;;;;;4490082;28;20082;-65
2022/10/26 05:14:24;;;;;;;2.08;1.50;;;;;;;;;;4491284;28;41663;-64
2022/10/26 05:16:35;;;;;;;2.08;1.67;;;;;;;;;;4484537;28;20034;-63
2022/10/26 05:18:48;;;;;;;1.55;1.33;;;;;;;;;;4492749;28;20468;-65
2022/10/26 05:20:59;;;;;;;2.13;1.50;;;;;;;;;;4492610;28;21026;-64
2022/10/26 05:23:10;;;;;;;1.70;1.60;;;;;;;;;;4492690;28;20061;-64
2022/10/26 05:25:21;;;;;;;2.20;1.42;;;;;;;;;;4492317;28;20171;-63
2022/10/26 05:27:31;;;;;;;2.15;1.60;;;;;;;;;;4492211;28;20026;-64
2022/10/26 05:29:42;;;;;;;2.13;1.60;;;;;;;;;;4492861;28;41481;-63
2022/10/26 05:31:52;;;;;;;2.08;1.50;;;;;;;;;;4491571;28;20057;-63
2022/10/26 05:34:02;;;;;;;1.85;1.35;;;;;;;;;;4493920;28;21115;-64
2022/10/26 05:36:13;;;;;;;1.77;1.48;;;;;;;;;;4493029;28;20046;-62
2022/10/26 05:38:23;;;;;;;1.92;1.60;;;;;;;;;;4493031;28;39997;-64
2022/10/26 05:40:34;;;;;;;2.42;1.70;;;;;;;;;;4493748;28;20065;-63
2022/10/26 05:42:44;;;;;;;2.92;1.80;;;;;;;;;;4494915;28;20042;-64
2022/10/26 05:44:54;;;;;;;1.90;1.55;;;;;;;;;;4494575;28;20056;-63
2022/10/26 05:47:05;;;;;;;2.00;1.60;;;;;;;;;;4492697;28;22440;-63
2022/10/26 05:49:15;;;;;;;2.13;1.55;;;;;;;;;;4494295;28;30973;-63
2022/10/26 05:51:26;;;;;;;2.75;1.88;;;;;;;;;;4497099;28;20113;-64
2022/10/26 05:53:37;;;;;;;2.78;1.60;;;;;;;;;;4491632;28;20490;-64
2022/10/26 05:55:47;;;;;;;2.38;1.60;;;;;;;;;;4493735;28;20109;-63
2022/10/26 05:57:58;;;;;;;1.95;1.55;;;;;;;;;;4492277;28;20038;-63
2022/10/26 06:00:17;;;;;;;2.08;1.65;;;;;;;;;;4492757;28;20038;-63
2022/10/26 06:02:53;;;;;;;1.88;1.38;;;;;;;;;;4496863;28;20022;-63
2022/10/26 06:05:05;;;;;;;2.45;1.75;;;;;;;;;;4491919;28;20041;-63
2022/10/26 06:07:21;;;;;;;2.35;1.70;;;;;;;;;;4491604;28;20788;-63
2022/10/26 06:09:32;;;;;;;1.88;1.52;;;;;;;;;;4491837;28;20041;-63
2022/10/26 06:11:43;;;;;;;2.45;1.70;;;;;;;;;;4491165;28;20058;-64
2022/10/26 06:13:59;;;;;;;2.70;1.50;;;;;;;;;;4493255;28;20029;-65
2022/10/26 06:16:30;;;;;;;3.03;1.80;;;;;;;;;;4492612;28;20633;-63
2022/10/26 06:18:49;;;;;;;2.33;1.65;;;;;;;;;;4492431;28;20038;-63
2022/10/26 06:21:02;;;;;;;2.38;1.60;;;;;;;;;;4490938;28;20038;-64
2022/10/26 06:23:17;;;;;;;2.25;1.70;;;;;;;;;;4490668;28;21081;-64
2022/10/26 06:26:01;;;;;;;2.30;1.70;;;;;;;;;;4490349;28;20034;-65
2022/10/26 06:28:30;;;;;;;2.55;1.70;;;;;;;;;;4490242;28;20266;-64
2022/10/26 06:30:40;;;;;;;2.30;1.70;;;;;;;;;;4490421;28;21015;-68
2022/10/26 06:32:55;;;;;;;2.25;1.55;;;;;;;;;;4478265;28;20069;-64
2022/10/26 06:35:22;;;;;;;2.38;1.70;;;;;;;;;;4491960;28;20039;-64
2022/10/26 06:37:32;;;;;;;1.83;1.50;;;;;;;;;;4493071;28;20030;-63
2022/10/26 06:39:45;;;;;;;2.05;1.65;;;;;;;;;;4494852;28;20545;-64
2022/10/26 06:41:56;;;;;;;2.50;1.58;;;;;;;;;;4492067;28;20029;-64
2022/10/26 06:44:11;;;;;;;2.58;1.63;;;;;;;;;;4493125;28;20034;-64
2022/10/26 06:46:40;;;;;;;1.70;1.50;;;;;;;;;;4499650;28;20026;-65
2022/10/26 06:49:34;;;;;;;2.63;1.50;;;;;;;;;;4491040;28;20041;-64
2022/10/26 06:51:56;;;;;;;2.17;1.52;;;;;;;;;;4499926;28;20040;-64
2022/10/26 06:54:45;;;;;;;2.33;1.58;;;;;;;;;;4491495;28;20129;-64
2022/10/26 06:56:56;;;;;;;1.70;1.45;;;;;;;;;;4486079;28;20050;-64
2022/10/26 06:59:14;;;;;;;1.90;1.55;;;;;;;;;;4491952;28;20029;-64
2022/10/26 07:01:24;;;;;;;1.73;1.40;;;;;;;;;;4490056;28;20037;-64
2022/10/26 07:03:34;;;;;;;1.98;1.30;;;;;;;;;;4491188;28;20041;-64
2022/10/26 07:05:45;;;;;;;2.10;1.40;;;;;;;;;;4491575;28;29754;-63
2022/10/26 07:07:56;;;;;;;2.08;1.30;;;;;;;;;;4492093;28;20100;-64
2022/10/26 07:10:06;;;;;;;2.08;1.45;;;;;;;;;;4491126;28;23115;-64
2022/10/26 07:12:17;;;;;;;1.90;1.55;;;;;;;;;;4489779;28;20496;-64
2022/10/26 07:14:27;;;;;;;2.15;1.27;;;;;;;;;;4491349;28;26001;-64
2022/10/26 07:16:37;;;;;;;1.75;1.20;;;;;;;;;;4498661;28;20790;-64
2022/10/26 07:18:48;;;;;;;1.90;1.30;;;;;;;;;;4482888;28;20277;-64
2022/10/26 07:20:58;;;;;;;2.15;1.30;;;;;;;;;;4491433;28;20046;-64
2022/10/26 07:23:12;;;;;;;2.85;1.50;;;;;;;;;;4490350;28;20038;-64
2022/10/26 07:25:24;;;;;;;1.95;1.40;;;;;;;;;;4490092;28;21310;-64
2022/10/26 07:27:34;;;;;;;1.60;1.30;;;;;;;;;;4490329;28;20034;-64
2022/10/26 07:29:45;;;;;;;2.55;1.40;;;;;;;;;;4489753;28;27955;-64
2022/10/26 07:31:55;;;;;;;2.00;1.30;;;;;;;;;;4493717;28;36677;-64
2022/10/26 07:34:06;;;;;;;1.95;1.35;;;;;;;;;;4491033;28;20045;-64
2022/10/26 07:36:16;;;;;;;1.50;1.23;;;;;;;;;;4494898;28;26447;-64
2022/10/26 07:38:26;;;;;;;1.55;1.23;;;;;;;;;;4497357;28;20519;-63
2022/10/26 07:40:37;;;;;;;1.35;1.00;;;;;;;;;;4499616;28;20128;-64
2022/10/26 07:42:47;;;;;;;1.60;0.93;;;;;;;;;;4499590;28;20042;-64
2022/10/26 07:44:58;;;;;;;1.65;1.20;;;;;;;;;;4498124;28;38795;-64
2022/10/26 07:47:08;;;;;;;1.30;1.02;;;;;;;;;;4495848;28;20061;-64
2022/10/26 07:49:18;;;;;;;1.50;1.20;;;;;;;;;;4496219;28;20038;-64
2022/10/26 07:51:29;;;;;;;1.35;1.20;;;;;;;;;;4497669;28;39305;-64
2022/10/26 07:53:39;;;;;;;1.70;1.40;;;;;;;;;;4496960;28;20046;-64
2022/10/26 07:55:54;;;;;;;1.20;1.10;;;;;;;;;;4497523;28;20549;-65
2022/10/26 07:58:04;;;;;;;1.88;1.10;;;;;;;;;;4496511;28;20611;-64
2022/10/26 08:00:15;;;;;;;1.20;0.90;;;;;;;;;;4487824;28;20104;-64
2022/10/26 08:02:25;;;;;;;1.48;0.98;;;;;;;;;;4495773;28;20395;-64
2022/10/26 08:04:36;;;;;;;1.48;1.02;;;;;;;;;;4497490;28;20093;-64
2022/10/26 08:06:47;;;;;;;1.48;0.90;;;;;;;;;;4497200;28;20026;-64
2022/10/26 08:08:57;;;;;;;1.40;0.93;;;;;;;;;;4495112;28;20117;-64
2022/10/26 08:11:08;;;;;;;2.75;1.10;;;;;;;;;;4495333;28;20153;-64
2022/10/26 08:13:18;;;;;;;1.02;0.90;;;;;;;;;;4495493;28;35675;-64
2022/10/26 08:15:28;;;;;;;1.13;0.80;;;;;;;;;;4501428;28;20049;-64
2022/10/26 08:17:39;;;;;;;1.30;0.93;;;;;;;;;;4496008;28;20755;-64
2022/10/26 08:19:49;;;;;;;1.00;0.70;;;;;;;;;;4495667;28;20093;-64
2022/10/26 08:22:00;;;;;;;0.93;0.82;;;;;;;;;;4495327;28;20057;-64
2022/10/26 08:24:10;;;;;;;1.20;0.90;;;;;;;;;;4495572;28;20034;-64
2022/10/26 08:26:21;;;;;;;1.35;0.88;;;;;;;;;;4499274;28;20120;-64
2022/10/26 08:28:31;;;;;;;1.13;0.70;;;;;;;;;;4496955;28;20037;-64
2022/10/26 08:30:42;;;;;;;1.17;0.80;;;;;;;;;;4496585;28;20085;-64
2022/10/26 08:32:59;;;;;;;1.00;0.88;;;;;;;;;;4496119;28;20038;-64
2022/10/26 08:35:10;;;;;;;1.15;0.80;;;;;;;;;;4495998;28;20042;-64
2022/10/26 08:37:21;;;;;;;1.17;0.80;;;;;;;;;;4495638;28;20448;-64
2022/10/26 08:39:32;;;;;;;1.45;0.90;;;;;;;;;;4496263;28;20031;-64
2022/10/26 08:41:43;;;;;;;1.60;0.80;;;;;;;;;;4496302;28;20046;-64
2022/10/26 08:43:58;;;;;;;1.25;0.90;;;;;;;;;;4496072;28;20034;-64
2022/10/26 08:46:12;;;;;;;1.00;0.80;;;;;;;;;;4472445;28;20062;-64
2022/10/26 08:48:31;;;;;;;1.30;0.70;;;;;;;;;;4501362;28;20025;-64
2022/10/26 08:50:52;;;;;;;1.17;0.90;;;;;;;;;;4492629;28;20113;-64
2022/10/26 08:53:08;;;;;;;2.15;0.88;;;;;;;;;;4501549;28;20481;-63
2022/10/26 08:55:22;;;;;;;1.45;0.77;;;;;;;;;;4501311;28;20685;-64
2022/10/26 08:57:40;;;;;;;1.33;0.90;;;;;;;;;;4508928;28;20136;-64
2022/10/26 09:00:03;;;;;;;0.93;0.70;;;;;;;;;;4493981;28;20038;-63
2022/10/26 09:02:15;;;;;;;1.42;0.80;;;;;;;;;;4478895;28;20178;-63
2022/10/26 09:04:27;;;;;;;1.15;0.80;;;;;;;;;;4492294;28;20843;-64
2022/10/26 09:06:41;;;;;;;0.80;0.70;;;;;;;;;;4494002;28;20022;-64
2022/10/26 09:09:09;;;;;;;1.17;0.90;;;;;;;;;;4491949;28;20034;-64
2022/10/26 09:11:44;;;;;;;1.42;0.80;;;;;;;;;;4495575;28;20665;-64
2022/10/26 09:14:01;;;;;;;1.00;0.73;;;;;;;;;;4492696;28;20112;-64
2022/10/26 09:16:49;;;;;;;0.98;0.80;;;;;;;;;;4493649;28;20034;-63
2022/10/26 09:19:14;;;;;;;0.82;0.80;;;;;;;;;;4492798;28;20350;-64
2022/10/26 09:21:47;;;;;;;0.95;0.80;;;;;;;;;;4493955;28;20807;-64
2022/10/26 09:24:11;;;;;;;0.80;0.70;;;;;;;;;;4502209;28;20045;-64
2022/10/26 09:26:31;;;;;;;0.90;0.70;;;;;;;;;;4494713;28;20593;-64
2022/10/26 09:28:43;;;;;;;1.23;0.70;;;;;;;;;;4491501;28;20085;-64
2022/10/26 09:30:57;;;;;;;1.45;0.70;;;;;;;;;;4492697;28;20522;-64
2022/10/26 09:33:21;;;;;;;0.88;0.68;;;;;;;;;;4492343;28;20038;-64
2022/10/26 09:35:40;;;;;;;0.95;0.60;;;;;;;;;;4496249;28;20034;-64
2022/10/26 09:37:55;;;;;;;1.27;0.70;;;;;;;;;;4492969;28;20047;-64
2022/10/26 09:40:19;;;;;;;0.90;0.70;;;;;;;;;;4493034;28;20041;-64
2022/10/26 09:42:53;;;;;;;1.17;0.68;;;;;;;;;;4490003;28;20034;-64
2022/10/26 09:45:10;;;;;;;0.93;0.70;;;;;;;;;;4484815;28;21017;-64
2022/10/26 09:47:41;;;;;;;0.80;0.60;;;;;;;;;;4495452;28;20029;-64
2022/10/26 09:49:59;;;;;;;0.82;0.70;;;;;;;;;;4491257;28;20578;-63
2022/10/26 09:52:10;;;;;;;1.08;0.77;;;;;;;;;;4492371;28;20125;-64
2022/10/26 09:54:20;;;;;;;1.80;0.70;;;;;;;;;;4491088;28;20085;-64
2022/10/26 09:56:31;;;;;;;0.80;0.70;;;;;;;;;;4494857;28;20033;-64
2022/10/26 09:58:45;;;;;;;1.08;0.73;;;;;;;;;;4493507;28;20038;-64
2022/10/26 10:00:56;;;;;;;0.93;0.52;;;;;;;;;;4494602;28;20041;-63
2022/10/26 10:03:26;;;;;;;0.80;0.60;;;;;;;;;;4492172;28;20042;-64
2022/10/26 10:05:36;;;;;;;0.90;0.60;;;;;;;;;;4491959;28;20036;-63
2022/10/26 10:07:47;;;;;;;1.17;0.50;;;;;;;;;;4491399;28;20036;-63
2022/10/26 10:10:17;;;;;;;0.82;0.52;;;;;;;;;;4500735;28;20041;-64
2022/10/26 10:12:28;;;;;;;0.75;0.70;;;;;;;;;;4489426;28;20081;-64
2022/10/26 10:14:39;;;;;;;2.13;0.63;;;;;;;;;;4490904;28;27804;-64
2022/10/26 10:16:53;;;;;;;0.70;0.55;;;;;;;;;;4490957;28;20371;-64
2022/10/26 10:19:03;;;;;;;0.88;0.50;;;;;;;;;;4490098;28;20038;-64
2022/10/26 10:21:13;;;;;;;1.10;0.70;;;;;;;;;;4490157;28;42904;-64
2022/10/26 10:23:33;;;;;;;0.90;0.60;;;;;;;;;;4490354;28;29158;-63
2022/10/26 10:25:43;;;;;;;0.55;0.55;;;;;;;;;;4491376;28;20029;-63
2022/10/26 10:27:54;;;;;;;0.70;0.60;;;;;;;;;;4491869;28;20044;-63
2022/10/26 10:30:22;;;;;;;0.90;0.60;;;;;;;;;;4500380;28;20489;-64
2022/10/26 10:32:33;;;;;;;0.95;0.60;;;;;;;;;;4490693;28;20054;-64
2022/10/26 10:34:43;;;;;;;0.70;0.50;;;;;;;;;;4491214;28;20046;-64
2022/10/26 10:36:54;;;;;;;1.60;0.80;;;;;;;;;;4492169;28;33643;-63
2022/10/26 10:39:24;;;;;;;0.65;0.60;;;;;;;;;;4494152;28;20050;-63
2022/10/26 10:41:35;;;;;;;0.88;0.60;;;;;;;;;;4478495;28;20043;-64
2022/10/26 10:43:51;;;;;;;1.00;0.70;;;;;;;;;;4491871;28;20030;-64
2022/10/26 10:46:01;;;;;;;1.23;0.60;;;;;;;;;;4491580;28;20034;-64
2022/10/26 10:48:11;;;;;;;0.82;0.50;;;;;;;;;;4490911;28;20485;-63
2022/10/26 10:50:22;;;;;;;0.70;0.60;;;;;;;;;;4491648;28;20026;-64
2022/10/26 10:52:34;;;;;;;1.10;0.77;;;;;;;;;;4491276;28;20063;-64
2022/10/26 10:54:46;;;;;;;0.75;0.52;;;;;;;;;;4499938;28;20034;-65
2022/10/26 10:57:10;;;;;;;0.63;0.50;;;;;;;;;;4494556;28;20866;-63
2022/10/26 10:59:45;;;;;;;0.98;0.80;;;;;;;;;;4475899;28;20864;-63
2022/10/26 11:02:24;;;;;;;1.40;0.70;;;;;;;;;;4499508;28;20064;-64
2022/10/26 11:04:59;;;;;;;0.68;0.50;;;;;;;;;;4500626;28;20037;-63
2022/10/26 11:07:11;;;;;;;1.13;0.55;;;;;;;;;;4491144;28;20039;-64
2022/10/26 11:09:26;;;;;;;0.60;0.60;;;;;;;;;;4490207;28;26433;-64
2022/10/26 11:11:47;;;;;;;0.73;0.55;;;;;;;;;;4497589;28;20550;-63
2022/10/26 11:14:16;;;;;;;1.48;0.73;;;;;;;;;;4483611;28;20154;-64
2022/10/26 11:16:36;;;;;;;0.93;0.70;;;;;;;;;;4491096;28;20073;-63
2022/10/26 11:19:19;;;;;;;0.93;0.65;;;;;;;;;;4491405;28;20038;-63
2022/10/26 11:21:36;;;;;;;0.70;0.50;;;;;;;;;;4442312;28;20054;-63
2022/10/26 11:24:00;;;;;;;1.33;0.70;;;;;;;;;;4490650;28;20053;-64
2022/10/26 11:26:23;;;;;;;0.82;0.60;;;;;;;;;;4493336;28;20156;-67
2022/10/26 11:28:39;;;;;;;1.25;0.60;;;;;;;;;;4482240;28;21242;-67
2022/10/26 11:30:56;;;;;;;0.80;0.60;;;;;;;;;;4492408;28;20650;-65
2022/10/26 11:33:25;;;;;;;0.85;0.60;;;;;;;;;;4495128;28;20053;-64
2022/10/26 11:35:51;;;;;;;0.80;0.70;;;;;;;;;;4495257;28;20038;-65
2022/10/26 11:38:48;;;;;;;1.02;0.70;;;;;;;;;;4490095;28;20037;-65
2022/10/26 11:41:03;;;;;;;1.00;0.60;;;;;;;;;;4483177;28;20053;-63
2022/10/26 11:43:36;;;;;;;0.93;0.50;;;;;;;;;;4489990;28;20073;-63
2022/10/26 11:46:01;;;;;;;1.35;0.82;;;;;;;;;;4446621;28;20078;-62
2022/10/26 11:48:42;;;;;;;1.65;1.00;;;;;;;;;;4490894;28;20030;-63
2022/10/26 11:50:56;;;;;;;0.80;0.70;;;;;;;;;;4478585;28;20590;-63
2022/10/26 11:53:14;;;;;;;0.65;0.60;;;;;;;;;;4483675;28;20045;-63
2022/10/26 11:55:24;;;;;;;0.88;0.70;;;;;;;;;;4491388;28;20047;-63
2022/10/26 11:57:36;;;;;;;1.33;0.80;;;;;;;;;;4497125;28;29950;-63
2022/10/26 11:59:53;;;;;;;0.95;0.70;;;;;;;;;;4489879;28;20172;-63
2022/10/26 12:02:10;;;;;;;1.08;0.70;;;;;;;;;;4482585;28;20038;-63
2022/10/26 12:04:21;;;;;;;;;;;;;;;;;;4476408;28;20085;-63
2022/10/26 12:06:32;;;;;;;1.20;0.80;;;;;;;;;;4490439;28;19980;-65
2022/10/26 12:08:46;;;;;;;1.00;0.70;;;;;;;;;;4488493;28;20765;-64
2022/10/26 12:11:06;;;;;;;1.85;0.90;;;;;;;;;;4497739;28;20038;-64
2022/10/26 12:13:23;;;;;;;1.30;0.85;;;;;;;;;;4498332;28;20153;-64
2022/10/26 12:16:05;;;;;;;1.33;0.77;;;;;;;;;;4491040;28;20043;-63
2022/10/26 12:18:39;;;;;;;1.38;0.90;;;;;;;;;;4489237;28;20030;-64
2022/10/26 12:20:49;;;;;;;1.35;0.77;;;;;;;;;;4492393;28;20038;-64
2022/10/26 12:22:59;;;;;;;2.17;0.70;;;;;;;;;;4491146;28;20427;-64
2022/10/26 12:25:12;;;;;;;0.90;0.80;;;;;;;;;;4493028;28;20045;-64
2022/10/26 12:27:32;;;;;;;1.45;0.90;;;;;;;;;;4491823;28;20044;-64
2022/10/26 12:29:48;;;;;;;1.17;0.82;;;;;;;;;;4484868;28;20273;-64
2022/10/26 12:31:58;;;;;;;1.45;0.90;;;;;;;;;;4493004;28;20105;-64
2022/10/26 12:34:13;;;;;;;1.67;0.90;;;;;;;;;;4491856;28;20085;-64
2022/10/26 12:36:46;;;;;;;0.93;0.80;;;;;;;;;;4483256;28;20182;-64
2022/10/26 12:38:56;;;;;;;1.25;0.80;;;;;;;;;;4493448;28;20807;-65
2022/10/26 12:41:20;;;;;;;0.90;0.80;;;;;;;;;;4493655;28;20138;-65
2022/10/26 12:43:33;;;;;;;1.33;0.80;;;;;;;;;;4500207;28;20141;-65
2022/10/26 12:45:45;;;;;;;1.50;0.80;;;;;;;;;;4492947;28;20113;-64
2022/10/26 12:48:00;;;;;;;2.70;1.35;;;;;;;;;;4492960;28;20042;-65
2022/10/26 12:50:11;;;;;;;1.10;0.80;;;;;;;;;;4492713;28;21046;-65
2022/10/26 12:52:41;;;;;;;1.00;0.80;;;;;;;;;;4492683;28;20089;-64
2022/10/26 12:55:06;;;;;;;1.00;0.90;;;;;;;;;;4493348;28;20293;-65
2022/10/26 12:57:31;;;;;;;1.15;0.90;;;;;;;;;;4491377;28;20069;-64
2022/10/26 12:59:59;;;;;;;0.95;0.80;;;;;;;;;;4491118;28;20124;-66
2022/10/26 13:02:32;;;;;;;1.25;0.80;;;;;;;;;;4496175;28;20165;-63
2022/10/26 13:05:03;;;;;;;0.93;0.70;;;;;;;;;;4491920;28;20049;-63
2022/10/26 13:07:19;;;;;;;1.17;0.90;;;;;;;;;;4490980;28;20682;-64
2022/10/26 13:09:31;;;;;;;1.25;0.80;;;;;;;;;;4493548;28;20500;-63
2022/10/26 13:11:45;;;;;;;1.75;0.90;;;;;;;;;;4480086;28;20046;-63
2022/10/26 13:14:04;;;;;;;1.33;0.80;;;;;;;;;;4496620;28;20127;-63
2022/10/26 13:16:15;;;;;;;1.15;0.98;;;;;;;;;;4492358;28;20041;-63
2022/10/26 13:18:26;;;;;;;1.65;0.88;;;;;;;;;;4499865;28;20040;-63
2022/10/26 13:20:51;;;;;;;2.15;0.88;;;;;;;;;;4491269;28;28092;-63
2022/10/26 13:23:13;;;;;;;1.40;0.90;;;;;;;;;;4495263;28;20034;-63
2022/10/26 13:25:26;;;;;;;1.58;1.00;;;;;;;;;;4482394;28;20030;-64
2022/10/26 13:27:36;;;;;;;2.22;1.10;;;;;;;;;;4492536;28;20035;-63
2022/10/26 13:30:01;;;;;;;1.27;0.90;;;;;;;;;;4491777;28;20042;-64
2022/10/26 13:32:12;;;;;;;1.52;1.00;;;;;;;;;;4492582;28;20030;-63
2022/10/26 13:34:25;;;;;;;1.58;0.95;;;;;;;;;;4491424;28;20042;-63